createdAt,value
2022-09-15T00:01:01.008Z,17.95
2022-09-15T00:05:02.885Z,17.96
2022-09-15T00:09:04.907Z,17.98
2022-09-15T00:13:06.500Z,17.98
2022-09-15T00:17:08.186Z,17.97
2022-09-15T00:21:16.472Z,17.96
2022-09-15T00:25:18.416Z,17.95
2022-09-15T00:29:19.998Z,17.93
2022-09-15T00:33:22.828Z,17.94
2022-09-15T00:37:24.682Z,17.91
2022-09-15T00:41:26.587Z,17.94
2022-09-15T00:45:28.353Z,17.93
2022-09-15T00:49:33.753Z,17.93
2022-09-15T00:53:35.760Z,17.93
2022-09-15T00:57:42.704Z,17.93
2022-09-15T01:01:47.231Z,17.96
2022-09-15T01:05:54.601Z,17.98
2022-09-15T01:09:59.894Z,18.02
2022-09-15T01:14:02.121Z,18.02
2022-09-15T01:18:19.335Z,18.02
2022-09-15T01:22:55.463Z,18.03
2022-09-15T01:27:24.085Z,17.98
2022-09-15T01:31:36.643Z,18.00
2022-09-15T01:36:11.318Z,18.01
2022-09-15T01:40:15.586Z,18.04
2022-09-15T01:44:24.899Z,18.03
2022-09-15T01:48:28.304Z,18.03
2022-09-15T01:52:31.163Z,18.04
2022-09-15T01:56:32.936Z,18.02
2022-09-15T02:00:41.713Z,18.04
2022-09-15T02:04:55.398Z,18.08
2022-09-15T02:09:02.660Z,18.11
2022-09-15T02:13:18.008Z,18.14
2022-09-15T02:17:21.334Z,18.09
2022-09-15T02:21:36.395Z,18.09
2022-09-15T02:25:45.327Z,18.11
2022-09-15T02:29:48.809Z,18.11
2022-09-15T02:33:59.155Z,18.13
2022-09-15T02:38:02.546Z,18.14
2022-09-15T02:42:04.435Z,18.13
2022-09-15T02:46:07.012Z,18.10
2022-09-15T02:50:11.854Z,18.04
2022-09-15T02:54:13.840Z,17.98
2022-09-15T02:58:17.150Z,17.91
2022-09-15T03:02:21.535Z,17.87
2022-09-15T03:06:26.464Z,17.84
2022-09-15T03:10:29.169Z,17.78
2022-09-15T03:14:32.641Z,17.73
2022-09-15T03:18:34.571Z,17.69
2022-09-15T03:22:36.184Z,17.66
2022-09-15T03:26:37.838Z,17.63
2022-09-15T03:30:39.408Z,17.57
2022-09-15T03:34:41.546Z,17.48
2022-09-15T03:38:43.087Z,17.37
2022-09-15T03:42:44.636Z,17.35
2022-09-15T03:46:46.355Z,17.36
2022-09-15T03:50:48.498Z,17.37
2022-09-15T03:54:50.111Z,17.28
2022-09-15T03:58:52.251Z,17.21
2022-09-15T04:02:56.635Z,17.16
2022-09-15T04:06:58.198Z,17.07
2022-09-15T04:11:04.465Z,17.00
2022-09-15T04:15:07.623Z,16.95
2022-09-15T04:19:09.307Z,16.96
2022-09-15T04:23:11.954Z,16.89
2022-09-15T04:27:14.076Z,16.84
2022-09-15T04:31:16.918Z,16.81
2022-09-15T04:35:18.599Z,16.65
2022-09-15T04:39:20.289Z,16.56
2022-09-15T04:43:22.381Z,16.50
2022-09-15T04:47:24.112Z,16.47
2022-09-15T04:51:27.281Z,16.37
2022-09-15T04:55:32.580Z,16.30
2022-09-15T04:59:34.448Z,16.18
2022-09-15T05:03:37.741Z,16.14
2022-09-15T05:07:39.351Z,16.13
2022-09-15T05:11:41.153Z,16.06
2022-09-15T05:15:42.808Z,15.98
2022-09-15T05:19:44.385Z,15.88
2022-09-15T05:23:46.682Z,15.89
2022-09-15T05:27:48.324Z,15.84
2022-09-15T05:31:50.039Z,15.82
2022-09-15T05:35:59.964Z,15.78
2022-09-15T05:40:05.172Z,15.69
2022-09-15T05:44:11.614Z,15.67
2022-09-15T05:48:13.218Z,15.65
2022-09-15T05:52:14.764Z,15.61
2022-09-15T05:56:17.529Z,15.65
2022-09-15T06:00:19.172Z,15.65
2022-09-15T06:04:20.795Z,15.66
2022-09-15T06:08:22.387Z,15.68
2022-09-15T06:12:24.144Z,15.69
2022-09-15T06:16:26.764Z,15.71
2022-09-15T06:20:28.382Z,15.72
2022-09-15T06:24:30.015Z,15.77
2022-09-15T06:28:31.623Z,15.82
2022-09-15T06:32:33.955Z,15.84
2022-09-15T06:36:36.884Z,15.84
2022-09-15T06:40:38.419Z,15.86
2022-09-15T06:44:39.991Z,15.94
2022-09-15T06:48:45.255Z,16.01
2022-09-15T06:52:49.616Z,16.06
2022-09-15T06:56:51.196Z,16.13
2022-09-15T07:00:52.853Z,16.21
2022-09-15T07:04:54.435Z,16.34
2022-09-15T07:08:56.738Z,16.47
2022-09-15T07:12:59.076Z,16.56
2022-09-15T07:17:00.605Z,16.65
2022-09-15T07:21:07.605Z,16.73
2022-09-15T07:25:09.380Z,16.83
2022-09-15T07:29:11.050Z,16.95
2022-09-15T07:33:13.518Z,17.17
2022-09-15T07:37:16.258Z,17.27
2022-09-15T07:41:21.187Z,17.44
2022-09-15T07:45:23.037Z,17.62
2022-09-15T07:49:24.595Z,17.77
2022-09-15T07:53:29.952Z,17.92
2022-09-15T07:57:31.545Z,17.98
2022-09-15T08:01:33.339Z,18.03
2022-09-15T08:05:39.397Z,17.99
2022-09-15T08:09:42.874Z,17.87
2022-09-15T08:13:45.113Z,17.81
2022-09-15T08:17:46.745Z,17.88
2022-09-15T08:21:48.279Z,18.04
2022-09-15T08:25:51.656Z,18.16
2022-09-15T08:29:53.415Z,18.24
2022-09-15T08:33:55.959Z,18.32
2022-09-15T08:37:57.691Z,18.45
2022-09-15T08:42:02.101Z,18.55
2022-09-15T08:46:06.870Z,18.65
2022-09-15T08:50:35.747Z,18.75
2022-09-15T08:54:38.701Z,18.76
2022-09-15T08:58:40.657Z,18.73
2022-09-15T09:03:05.374Z,18.79
2022-09-15T09:07:09.919Z,18.78
2022-09-15T09:11:23.369Z,18.88
2022-09-15T09:15:41.427Z,19.04
2022-09-15T09:20:14.083Z,19.08
2022-09-15T09:24:18.019Z,18.98
2022-09-15T09:28:42.341Z,18.88
2022-09-15T09:32:50.340Z,18.80
2022-09-15T09:36:58.736Z,18.65
2022-09-15T09:41:02.497Z,18.63
2022-09-15T09:45:05.957Z,18.72
2022-09-15T09:49:24.068Z,18.94
2022-09-15T09:53:36.470Z,19.00
2022-09-15T09:57:40.683Z,18.89
2022-09-15T10:02:05.246Z,18.74
2022-09-15T10:06:11.053Z,18.70
2022-09-15T10:10:32.322Z,18.63
2022-09-15T10:14:40.321Z,18.60
2022-09-15T10:18:41.940Z,18.66
2022-09-15T10:22:44.090Z,18.95
2022-09-15T10:26:46.007Z,19.15
2022-09-15T10:31:10.789Z,19.40
2022-09-15T10:35:15.115Z,19.85
2022-09-15T10:39:59.645Z,19.93
2022-09-15T10:44:28.951Z,20.22
2022-09-15T10:48:54.103Z,20.76
2022-09-15T10:53:11.394Z,20.76
2022-09-15T10:57:31.112Z,20.79
2022-09-15T11:01:59.093Z,20.88
2022-09-15T11:06:07.157Z,21.24
2022-09-15T11:10:37.385Z,21.78
2022-09-15T11:15:11.424Z,21.15
2022-09-15T11:19:22.700Z,20.67
2022-09-15T11:23:32.829Z,21.09
2022-09-15T11:27:41.151Z,21.24
2022-09-15T11:31:47.867Z,21.22
2022-09-15T11:36:15.759Z,21.42
2022-09-15T11:40:23.531Z,22.46
2022-09-15T11:44:31.443Z,23.44
2022-09-15T11:48:45.504Z,24.36
2022-09-15T11:52:57.756Z,23.79
2022-09-15T11:57:00.284Z,23.01
2022-09-15T12:01:14.408Z,22.05
2022-09-15T12:05:28.439Z,21.26
2022-09-15T12:09:30.937Z,20.92
2022-09-15T12:13:33.185Z,20.91
2022-09-15T12:17:44.696Z,21.30
2022-09-15T12:22:07.165Z,21.54
2022-09-15T12:26:14.724Z,21.87
2022-09-15T12:30:38.865Z,21.84
2022-09-15T12:34:40.456Z,21.81
2022-09-15T12:38:48.043Z,21.95
2022-09-15T12:42:49.924Z,22.28
2022-09-15T12:46:56.161Z,22.38
2022-09-15T12:51:12.374Z,22.35
2022-09-15T12:55:23.919Z,22.50
2022-09-15T12:59:35.784Z,22.72
2022-09-15T13:08:01.911Z,23.65
2022-09-15T13:12:05.723Z,23.63
2022-09-15T13:16:14.504Z,22.96
2022-09-15T13:20:26.109Z,22.34
2022-09-15T13:24:59.118Z,21.92
2022-09-15T13:29:06.412Z,22.19
2022-09-15T13:38:29.106Z,21.13
2022-09-15T13:42:42.324Z,20.84
2022-09-15T13:47:02.227Z,20.57
2022-09-15T13:51:29.887Z,20.41
2022-09-15T13:55:36.809Z,20.61
2022-09-15T13:59:38.433Z,20.84
2022-09-15T14:03:42.534Z,21.00
2022-09-15T14:07:59.171Z,21.02
2022-09-15T14:12:09.209Z,20.87
2022-09-15T14:16:25.452Z,20.94
2022-09-15T14:20:27.085Z,21.13
2022-09-15T14:24:31.095Z,21.22
2022-09-15T14:28:32.957Z,21.40
2022-09-15T14:32:39.965Z,21.84
2022-09-15T14:36:43.600Z,21.65
2022-09-15T14:40:52.276Z,21.30
2022-09-15T14:49:16.444Z,21.10
2022-09-15T14:53:23.144Z,21.23
2022-09-15T14:57:31.139Z,21.39
2022-09-15T15:01:38.121Z,21.51
2022-09-15T15:05:45.981Z,21.69
2022-09-15T15:09:56.796Z,21.56
2022-09-15T15:13:58.957Z,21.40
2022-09-15T15:18:00.871Z,21.23
2022-09-15T15:22:11.639Z,21.09
2022-09-15T15:26:34.328Z,20.96
2022-09-15T15:30:47.085Z,20.78
2022-09-15T15:34:51.582Z,20.54
2022-09-15T15:38:55.785Z,20.35
2022-09-15T15:43:04.192Z,20.08
2022-09-15T15:47:14.392Z,19.94
2022-09-15T15:51:18.135Z,19.86
2022-09-15T15:55:26.794Z,19.82
2022-09-15T15:59:28.403Z,19.79
2022-09-15T16:03:29.957Z,19.72
2022-09-15T16:07:33.425Z,19.74
2022-09-15T16:11:35.220Z,19.76
2022-09-15T16:15:44.137Z,19.71
2022-09-15T16:19:45.717Z,19.62
2022-09-15T16:23:47.412Z,19.47
2022-09-15T16:27:48.947Z,19.24
2022-09-15T16:31:50.636Z,19.09
2022-09-15T16:36:03.806Z,18.96
2022-09-15T16:40:06.125Z,18.82
2022-09-15T16:44:17.629Z,18.66
2022-09-15T16:48:19.580Z,18.57
2022-09-15T16:52:21.172Z,18.46
2022-09-15T16:56:27.131Z,18.40
2022-09-15T17:00:30.555Z,18.37
2022-09-15T17:04:34.157Z,18.39
2022-09-15T17:08:35.733Z,18.40
2022-09-15T17:12:38.337Z,18.38
2022-09-15T17:16:41.138Z,18.35
2022-09-15T17:20:43.378Z,18.27
2022-09-15T17:24:44.945Z,18.21
2022-09-15T17:28:47.169Z,18.11
2022-09-15T17:32:49.576Z,18.01
2022-09-15T17:36:51.218Z,17.87
2022-09-15T17:40:55.337Z,17.76
2022-09-15T17:44:57.044Z,17.66
2022-09-15T17:48:58.691Z,17.57
2022-09-15T17:53:00.746Z,17.48
2022-09-15T17:57:02.263Z,17.38
2022-09-15T18:01:05.135Z,17.31
2022-09-15T18:05:07.189Z,17.23
2022-09-15T18:09:08.884Z,17.17
2022-09-15T18:13:15.738Z,17.12
2022-09-15T18:17:19.167Z,17.08
2022-09-15T18:21:28.686Z,17.04
2022-09-15T18:25:40.140Z,17.01
2022-09-15T18:29:43.522Z,17.01
2022-09-15T18:33:45.172Z,17.01
2022-09-15T18:37:48.813Z,17.01
2022-09-15T18:41:50.630Z,17.02
2022-09-15T18:45:55.101Z,17.00
2022-09-15T18:49:58.786Z,16.99
2022-09-15T18:54:01.364Z,16.98
2022-09-15T18:58:04.492Z,17.03
2022-09-15T19:02:11.871Z,17.05
2022-09-15T19:06:15.563Z,17.01
2022-09-15T19:10:19.216Z,17.01
2022-09-15T19:14:20.954Z,17.03
2022-09-15T19:18:22.889Z,16.96
2022-09-15T19:22:24.581Z,16.98
2022-09-15T19:26:28.910Z,17.01
2022-09-15T19:30:30.473Z,17.03
2022-09-15T19:34:32.320Z,17.04
2022-09-15T19:38:35.759Z,17.01
2022-09-15T19:42:38.999Z,17.00
2022-09-15T19:46:40.607Z,16.98
2022-09-15T19:50:42.205Z,17.00
2022-09-15T19:54:43.997Z,16.96
2022-09-15T19:58:46.519Z,16.97
2022-09-15T20:02:48.582Z,16.96
2022-09-15T20:06:50.178Z,16.94
2022-09-15T20:10:51.788Z,16.91
2022-09-15T20:14:53.633Z,16.89
2022-09-15T20:18:56.538Z,16.90
2022-09-15T20:22:58.358Z,16.87
2022-09-15T20:27:00.209Z,16.84
2022-09-15T20:31:09.312Z,16.79
2022-09-15T20:35:10.900Z,16.75
2022-09-15T20:39:15.114Z,16.70
2022-09-15T20:43:21.104Z,16.67
2022-09-15T20:47:22.776Z,16.62
2022-09-15T20:51:33.612Z,16.59
2022-09-15T20:55:35.473Z,16.54
2022-09-15T20:59:38.504Z,16.46
2022-09-15T21:03:41.622Z,16.36
2022-09-15T21:07:43.192Z,16.24
2022-09-15T21:11:45.116Z,16.10
2022-09-15T21:15:58.462Z,16.02
2022-09-15T21:20:00.010Z,15.92
2022-09-15T21:24:04.577Z,15.83
2022-09-15T21:28:06.472Z,15.79
2022-09-15T21:32:08.123Z,15.72
2022-09-15T21:36:15.547Z,15.67
2022-09-15T21:40:18.667Z,15.57
2022-09-15T21:44:20.449Z,15.43
2022-09-15T21:48:22.370Z,15.35
2022-09-15T21:52:25.080Z,15.29
2022-09-15T21:56:28.731Z,15.25
2022-09-15T22:00:30.274Z,15.21
2022-09-15T22:04:32.037Z,15.16
2022-09-15T22:08:33.597Z,15.12
2022-09-15T22:12:35.143Z,15.09
2022-09-15T22:16:38.895Z,15.05
2022-09-15T22:20:40.770Z,15.03
2022-09-15T22:24:42.535Z,14.99
2022-09-15T22:28:44.600Z,14.95
2022-09-15T22:32:46.364Z,14.90
2022-09-15T22:36:48.093Z,14.89
2022-09-15T22:40:49.790Z,14.86
2022-09-15T22:44:51.408Z,14.86
2022-09-15T22:48:54.482Z,14.87
2022-09-15T22:52:57.534Z,14.84
2022-09-15T22:56:59.248Z,14.83
2022-09-15T23:01:09.970Z,14.84
2022-09-15T23:05:11.537Z,14.84
2022-09-15T23:09:13.108Z,14.86
2022-09-15T23:13:14.776Z,14.86
2022-09-15T23:17:16.341Z,14.84
2022-09-15T23:21:18.934Z,14.86
2022-09-15T23:25:20.509Z,14.87
2022-09-15T23:29:24.870Z,14.88
2022-09-15T23:33:28.386Z,14.93
2022-09-15T23:37:29.985Z,14.95
2022-09-15T23:41:31.652Z,14.97
2022-09-15T23:45:33.180Z,14.98
2022-09-15T23:49:34.826Z,14.99
2022-09-15T23:53:36.429Z,14.99
2022-09-15T23:57:38.087Z,15.00
